Time;durP1;ratioP1;P1;durP2;ratioP2;P2;SDS_P1;SDS_P2;PMS_P1;PMS_P2;Temp;Humidity;BMP_temperature;BMP_pressure;BME280_temperature;BME280_humidity;BME280_pressure;Samples;Min_cycle;Max_cycle;Signal;HPM_P1;HPM_P2
2024/01/16 00:01:31;;;;;;;2.60;1.60;;;;;;;1.17;42.20;91180.97;4996492;28;20053;-80
2024/01/16 00:03:56;;;;;;;1.85;1.20;;;;;;;1.14;41.58;91184.06;4984703;28;20042;-79
2024/01/16 00:06:22;;;;;;;1.20;1.10;;;;;;;1.17;41.52;91185.34;4996863;28;20039;-79
2024/01/16 00:08:47;;;;;;;1.10;1.00;;;;;;;1.14;42.60;91185.88;4981217;28;20072;-79
2024/01/16 00:11:13;;;;;;;2.47;1.05;;;;;;;1.13;42.21;91182.53;4989176;28;20045;-80
2024/01/16 00:13:38;;;;;;;1.48;1.00;;;;;;;1.11;42.71;91187.16;4987359;28;20050;-80
2024/01/16 00:16:04;;;;;;;1.15;0.98;;;;;;;1.08;42.71;91189.47;4986418;28;20026;-79
2024/01/16 00:18:30;;;;;;;1.00;0.90;;;;;;;1.05;42.64;91193.34;4974666;28;20026;-80
2024/01/16 00:21:02;;;;;;;2.05;1.20;;;;;;;1.02;41.50;91188.72;4995830;28;20445;-80
2024/01/16 00:23:27;;;;;;;1.15;1.00;;;;;;;1.07;40.93;91195.69;4973865;28;20027;-81
2024/01/16 00:25:53;;;;;;;3.00;1.60;;;;;;;1.05;41.70;91190.78;4971699;28;20312;-79
2024/01/16 00:28:19;;;;;;;3.05;1.40;;;;;;;1.03;42.18;91193.59;4964020;28;20041;-79
2024/01/16 00:30:45;;;;;;;1.58;1.20;;;;;;;1.16;39.02;91188.97;4979670;28;20034;-79
2024/01/16 00:33:12;;;;;;;1.33;1.00;;;;;;;1.36;38.11;91204.41;4976110;28;20042;-79
2024/01/16 00:35:37;;;;;;;1.10;1.00;;;;;;;1.46;38.48;91211.34;4978584;28;21569;-80
2024/01/16 00:38:03;;;;;;;1.60;1.10;;;;;;;1.41;39.70;91206.97;4979765;28;20042;-81
2024/01/16 00:40:29;;;;;;;1.33;0.98;;;;;;;1.31;41.50;91212.16;4961830;28;20445;-79
2024/01/16 00:42:54;;;;;;;2.33;1.30;;;;;;;1.23;41.95;91212.66;4991314;28;20047;-79
2024/01/16 00:45:21;;;;;;;3.80;2.03;;;;;;;1.11;41.96;91218.09;4982086;28;20067;-79
2024/01/16 00:47:47;;;;;;;4.82;2.05;;;;;;;0.97;42.96;91220.44;4979837;28;20470;-79
2024/01/16 00:50:12;;;;;;;3.97;1.80;;;;;;;0.88;42.08;91224.56;4983512;28;20034;-78
2024/01/16 00:52:38;;;;;;;2.88;1.52;;;;;;;0.81;42.33;91224.00;4962286;28;20043;-78
2024/01/16 00:55:04;;;;;;;1.63;1.20;;;;;;;0.70;43.31;91227.63;4970885;28;20775;-79
2024/01/16 00:57:30;;;;;;;1.10;1.00;;;;;;;0.63;43.27;91212.41;4978963;28;20061;-79
2024/01/16 00:59:56;;;;;;;1.38;1.20;;;;;;;0.60;43.14;91224.00;4957269;28;20169;-78
2024/01/16 01:02:22;;;;;;;1.67;1.30;;;;;;;0.55;43.54;91213.69;4958717;28;20081;-78
2024/01/16 01:04:47;;;;;;;0.82;0.82;;;;;;;0.56;43.42;91206.75;4978567;28;20093;-79
2024/01/16 01:07:16;;;;;;;1.67;1.30;;;;;;;0.53;43.92;91202.88;4978923;28;20038;-79
2024/01/16 01:09:42;;;;;;;1.70;1.10;;;;;;;0.54;44.02;91209.59;4982131;28;20031;-79
2024/01/16 01:12:08;;;;;;;1.75;1.20;;;;;;;0.50;45.01;91213.69;4989683;28;20038;-79
2024/01/16 01:14:33;;;;;;;1.40;1.20;;;;;;;0.48;45.69;91213.19;4995491;28;20054;-79
2024/01/16 01:16:59;;;;;;;1.67;1.20;;;;;;;0.47;46.24;91211.63;4986498;28;20044;-81
2024/01/16 01:19:24;;;;;;;1.20;1.10;;;;;;;0.45;46.66;91208.56;4978859;28;20095;-78
2024/01/16 01:21:50;;;;;;;1.70;1.23;;;;;;;0.44;45.92;91212.13;4956542;28;20461;-79
2024/01/16 01:24:16;;;;;;;1.10;1.00;;;;;;;0.45;46.14;91213.69;4964219;28;20046;-78
2024/01/16 01:26:44;;;;;;;1.23;1.10;;;;;;;0.43;45.55;91210.59;4957530;28;20502;-78
2024/01/16 01:29:10;;;;;;;1.13;1.00;;;;;;;0.38;45.11;91208.78;4961851;28;20151;-78
2024/01/16 01:31:36;;;;;;;1.00;1.00;;;;;;;0.46;42.36;91222.97;4976236;28;20233;-78
2024/01/16 01:34:01;;;;;;;1.05;0.95;;;;;;;0.53;40.35;91233.78;4979808;28;20061;-79
2024/01/16 01:36:27;;;;;;;1.17;1.05;;;;;;;0.55;41.22;91239.44;4981280;28;20611;-80
2024/01/16 01:38:53;;;;;;;1.70;1.23;;;;;;;0.59;39.92;91237.91;4982128;28;20438;-77
2024/01/16 01:41:18;;;;;;;0.98;0.90;;;;;;;0.67;39.69;91246.16;4984402;28;20120;-78
2024/01/16 01:43:44;;;;;;;1.27;1.08;;;;;;;0.72;40.02;91252.09;4996505;28;20445;-78
2024/01/16 01:46:18;;;;;;;1.20;1.00;;;;;;;0.74;40.69;91254.41;4996357;28;20336;-78
2024/01/16 01:48:46;;;;;;;1.10;1.00;;;;;;;0.61;40.80;91242.81;4968162;28;20042;-77
2024/01/16 01:51:13;;;;;;;1.23;1.10;;;;;;;0.62;41.13;91258.00;4972038;28;20053;-77
2024/01/16 01:53:43;;;;;;;1.10;1.00;;;;;;;0.57;41.41;91267.53;4969773;28;20053;-80
2024/01/16 01:56:11;;;;;;;0.93;0.90;;;;;;;0.53;42.02;91266.50;4979955;28;20378;-80
2024/01/16 01:58:38;;;;;;;1.05;0.95;;;;;;;0.47;42.25;91257.19;4961449;28;20038;-78
2024/01/16 02:01:06;;;;;;;1.63;1.10;;;;;;;0.36;42.65;91258.97;4980841;28;20091;-79
2024/01/16 02:03:39;;;;;;;1.77;1.20;;;;;;;0.37;42.51;91263.09;4981712;28;20135;-80
2024/01/16 02:06:05;;;;;;;1.02;0.93;;;;;;;0.31;41.49;91272.59;4980950;28;20034;-78
2024/01/16 02:08:31;;;;;;;1.10;1.00;;;;;;;0.27;41.59;91274.16;4964085;28;20037;-79
2024/01/16 02:10:57;;;;;;;1.30;1.00;;;;;;;0.24;41.70;91272.06;4965155;28;20046;-80
2024/01/16 02:13:23;;;;;;;1.75;1.05;;;;;;;0.20;41.85;91281.31;4976748;28;20045;-80
2024/01/16 02:15:52;;;;;;;0.88;0.88;;;;;;;0.19;41.43;91270.25;4977168;28;20048;-79
2024/01/16 02:18:18;;;;;;;0.90;0.90;;;;;;;0.20;41.47;91276.97;4946504;28;20053;-80
2024/01/16 02:20:44;;;;;;;1.00;1.00;;;;;;;0.19;41.92;91279.78;4979569;28;20989;-79
2024/01/16 02:23:12;;;;;;;1.10;1.00;;;;;;;0.18;42.72;91280.78;4978501;28;20542;-78
2024/01/16 02:25:39;;;;;;;1.17;1.02;;;;;;;0.10;42.42;91276.91;4980505;28;20505;-78
2024/01/16 02:28:05;;;;;;;1.10;1.00;;;;;;;0.10;41.74;91289.78;4980045;28;20121;-78
2024/01/16 02:30:31;;;;;;;1.20;1.10;;;;;;;0.12;41.70;91292.88;4945306;28;20084;-78
2024/01/16 02:32:56;;;;;;;2.63;1.00;;;;;;;0.10;41.79;91292.34;4962330;28;20043;-79
2024/01/16 02:35:22;;;;;;;1.33;1.20;;;;;;;0.11;40.88;91293.91;4958427;28;20073;-79
2024/01/16 02:37:47;;;;;;;1.27;1.10;;;;;;;0.07;41.88;91297.22;4979863;28;20088;-79
2024/01/16 02:40:13;;;;;;;0.80;0.80;;;;;;;0.05;41.79;91312.16;4977129;28;20093;-79
2024/01/16 02:42:39;;;;;;;4.03;1.00;;;;;;;-0.03;40.85;91303.88;4991388;28;20034;-77
2024/01/16 02:45:05;;;;;;;0.82;0.82;;;;;;;-0.04;39.78;91312.63;4991740;28;20043;-79
2024/01/16 02:47:33;;;;;;;1.25;1.00;;;;;;;-0.04;39.98;91306.72;4977160;28;20037;-79
2024/01/16 02:50:00;;;;;;;1.20;1.10;;;;;;;-0.05;40.60;91318.00;4995229;28;20043;-79
2024/01/16 02:52:26;;;;;;;1.58;1.10;;;;;;;-0.05;41.16;91312.84;4977524;28;20079;-80
2024/01/16 02:54:51;;;;;;;0.98;0.90;;;;;;;-0.05;41.67;91312.84;4972587;28;20070;-79
2024/01/16 02:57:17;;;;;;;1.15;1.00;;;;;;;-0.07;42.57;91312.34;4979369;28;20036;-78
2024/01/16 02:59:46;;;;;;;2.28;1.17;;;;;;;-0.13;42.35;91308.22;4980803;28;20026;-78
2024/01/16 03:02:13;;;;;;;1.73;1.17;;;;;;;-0.22;43.08;91295.81;4979155;28;20101;-79
2024/01/16 03:04:39;;;;;;;1.20;1.10;;;;;;;-0.16;43.31;91312.03;4981513;28;20038;-78
2024/01/16 03:07:05;;;;;;;1.48;1.10;;;;;;;-0.18;43.79;91315.88;4984322;28;20037;-79
2024/01/16 03:09:30;;;;;;;1.33;1.10;;;;;;;-0.22;43.71;91311.25;4991281;28;20046;-80
2024/01/16 03:11:56;;;;;;;0.90;0.90;;;;;;;-0.27;44.28;91308.66;4988061;28;20046;-79
2024/01/16 03:14:22;;;;;;;1.65;1.10;;;;;;;-0.25;41.46;91314.31;4982936;28;20272;-79
2024/01/16 03:16:47;;;;;;;1.20;1.10;;;;;;;-0.21;41.21;91317.16;4983500;28;20038;-79
2024/01/16 03:19:13;;;;;;;1.17;1.00;;;;;;;-0.23;43.01;91324.34;4985452;28;20421;-78
2024/01/16 03:21:38;;;;;;;1.45;1.20;;;;;;;-0.31;43.91;91322.25;4984339;28;20113;-78
2024/01/16 03:24:10;;;;;;;1.25;1.10;;;;;;;-0.31;44.37;91317.88;4983492;28;20125;-79
2024/01/16 03:26:37;;;;;;;1.20;1.10;;;;;;;-0.31;43.24;91323.03;4982831;28;20166;-78
2024/01/16 03:29:02;;;;;;;1.30;1.20;;;;;;;-0.30;42.19;91323.78;4966469;28;20034;-78
2024/01/16 03:31:28;;;;;;;1.95;1.25;;;;;;;-0.30;43.31;91323.78;4980812;28;20041;-78
2024/01/16 03:33:54;;;;;;;1.10;1.00;;;;;;;-0.32;43.61;91331.75;4963979;28;20046;-78
2024/01/16 03:36:19;;;;;;;1.10;1.00;;;;;;;-0.28;42.72;91327.66;4983303;28;20042;-79
2024/01/16 03:38:45;;;;;;;1.35;1.20;;;;;;;-0.24;43.09;91333.84;4984171;28;20052;-79
2024/01/16 03:41:12;;;;;;;0.98;0.93;;;;;;;-0.25;43.13;91331.53;4980639;28;20050;-80
2024/01/16 03:43:37;;;;;;;2.10;1.30;;;;;;;-0.23;44.22;91337.19;4992935;28;20034;-79
2024/01/16 03:46:03;;;;;;;2.45;1.27;;;;;;;-0.27;45.38;91334.38;4994732;28;20113;-79
2024/01/16 03:48:28;;;;;;;1.83;1.30;;;;;;;-0.37;46.76;91330.94;4967892;28;20034;-78
2024/01/16 03:50:55;;;;;;;2.00;1.27;;;;;;;-0.40;47.81;91329.66;4977254;28;20069;-78
2024/01/16 03:53:21;;;;;;;1.15;1.00;;;;;;;-0.47;48.52;91334.22;4982412;28;20485;-78
2024/01/16 03:55:47;;;;;;;1.70;1.20;;;;;;;-0.45;46.67;91334.75;4981782;28;20046;-78
2024/01/16 03:58:13;;;;;;;1.95;1.30;;;;;;;-0.44;47.57;91344.00;4983452;28;20042;-79
2024/01/16 04:00:39;;;;;;;3.03;1.52;;;;;;;-0.49;48.76;91336.28;4982206;28;20058;-78
2024/01/16 04:03:05;;;;;;;1.33;1.10;;;;;;;-0.60;49.81;91344.94;4962242;28;20069;-78
2024/01/16 04:05:31;;;;;;;1.48;1.20;;;;;;;-0.62;49.55;91347.75;4981001;28;20449;-79
2024/01/16 04:07:59;;;;;;;1.80;1.20;;;;;;;-0.63;48.77;91346.19;4982911;28;20065;-79
2024/01/16 04:10:25;;;;;;;1.40;1.20;;;;;;;-0.63;48.89;91356.47;4981423;28;20237;-79
2024/01/16 04:12:51;;;;;;;1.52;1.30;;;;;;;-0.74;50.19;91350.47;4982314;28;20051;-79
2024/01/16 04:15:17;;;;;;;1.50;1.10;;;;;;;-0.71;51.34;91367.97;4981987;28;20069;-79
2024/01/16 04:17:42;;;;;;;1.45;1.17;;;;;;;-0.76;51.49;91367.94;4994460;28;20034;-78
2024/01/16 04:20:09;;;;;;;1.75;1.20;;;;;;;-0.82;52.17;91363.75;4981195;28;20096;-79
2024/01/16 04:22:35;;;;;;;1.10;1.00;;;;;;;-0.84;53.64;91365.81;4978815;28;20026;-79
2024/01/16 04:25:04;;;;;;;1.60;1.20;;;;;;;-0.88;54.03;91369.88;4981016;28;20173;-78
2024/01/16 04:27:33;;;;;;;1.85;1.38;;;;;;;-0.89;54.04;91379.38;4981967;28;20423;-78
2024/01/16 04:29:59;;;;;;;2.15;1.30;;;;;;;-0.93;53.44;91387.81;4982038;28;20034;-78
2024/01/16 04:32:25;;;;;;;1.42;1.20;;;;;;;-0.97;54.45;91386.75;4981746;28;20034;-79
2024/01/16 04:34:50;;;;;;;1.70;1.27;;;;;;;-1.01;55.73;91395.94;4982209;28;20405;-80
2024/01/16 04:37:16;;;;;;;1.30;1.10;;;;;;;-1.07;55.40;91387.44;4965524;28;20792;-78
2024/01/16 04:39:44;;;;;;;1.27;1.17;;;;;;;-1.11;55.14;91394.06;4996425;28;20035;-79
2024/01/16 04:42:09;;;;;;;1.17;1.08;;;;;;;-1.16;54.84;91387.09;4996232;28;20328;-79
2024/01/16 04:44:35;;;;;;;1.73;1.20;;;;;;;-1.16;55.61;91389.66;4996532;28;20552;-79
2024/01/16 04:47:00;;;;;;;1.75;1.20;;;;;;;-1.17;56.81;91392.44;4998359;28;20038;-78
2024/01/16 04:49:26;;;;;;;1.58;1.30;;;;;;;-1.25;56.73;91391.09;4996518;28;20042;-80
2024/01/16 04:51:51;;;;;;;1.67;1.20;;;;;;;-1.33;56.70;91383.81;4981303;28;20029;-81
2024/01/16 04:54:17;;;;;;;1.52;1.20;;;;;;;-1.24;56.12;91402.13;4972396;28;20412;-77
2024/01/16 04:56:45;;;;;;;1.30;1.17;;;;;;;-1.27;56.26;91405.97;4985922;28;20022;-79
2024/01/16 04:59:11;;;;;;;2.33;1.20;;;;;;;-1.29;56.54;91418.28;5002689;28;20038;-75
2024/01/16 05:01:37;;;;;;;2.35;1.50;;;;;;;-1.34;57.85;91410.50;5000685;28;20031;-79
2024/01/16 05:04:03;;;;;;;2.92;1.90;;;;;;;-1.35;59.05;91422.59;4985926;28;20060;-80
2024/01/16 05:06:29;;;;;;;2.80;1.52;;;;;;;-1.43;60.04;91423.00;4991394;28;20039;-80
2024/01/16 05:08:55;;;;;;;2.05;1.33;;;;;;;-1.52;59.74;91422.63;4981495;28;20039;-79
2024/01/16 05:11:21;;;;;;;2.15;1.30;;;;;;;-1.58;59.23;91426.13;5002510;28;20367;-79
2024/01/16 05:13:46;;;;;;;1.77;1.40;;;;;;;-1.61;58.72;91431.75;4981814;28;20042;-79
2024/01/16 05:16:13;;;;;;;2.03;1.40;;;;;;;-1.59;58.34;91434.88;4970987;28;20069;-80
2024/01/16 05:18:42;;;;;;;1.50;1.33;;;;;;;-1.58;58.50;91438.19;5004201;28;20034;-79
2024/01/16 05:21:08;;;;;;;1.80;1.30;;;;;;;-1.60;58.78;91441.03;4983915;28;20030;-80
2024/01/16 05:23:34;;;;;;;1.65;1.30;;;;;;;-1.64;57.91;91437.38;5002094;28;20069;-79
2024/01/16 05:25:59;;;;;;;1.40;1.15;;;;;;;-1.66;57.59;91436.06;5001876;28;20094;-80
2024/01/16 05:28:25;;;;;;;1.35;1.20;;;;;;;-1.66;58.51;91439.41;4985790;28;20292;-80
2024/01/16 05:30:50;;;;;;;1.95;1.25;;;;;;;-1.69;58.30;91434.72;4980035;28;20038;-79
2024/01/16 05:33:16;;;;;;;1.52;1.15;;;;;;;-1.64;58.00;91442.50;4970497;28;20043;-81
2024/01/16 05:35:42;;;;;;;1.20;1.10;;;;;;;-1.65;57.74;91443.50;5002578;28;20393;-79
2024/01/16 05:38:07;;;;;;;1.67;1.17;;;;;;;-1.68;57.50;91436.28;4980312;28;20034;-79
2024/01/16 05:40:34;;;;;;;1.45;1.20;;;;;;;-1.81;58.20;91428.94;4997818;28;20030;-80
2024/01/16 05:43:00;;;;;;;1.30;1.20;;;;;;;-1.85;59.03;91427.84;4967798;28;20046;-79
2024/01/16 05:45:25;;;;;;;1.90;1.20;;;;;;;-1.79;58.93;91447.44;4986134;28;20433;-80
2024/01/16 05:47:51;;;;;;;1.30;1.20;;;;;;;-1.62;59.22;91443.06;5005177;28;20042;-79
2024/01/16 05:50:18;;;;;;;2.45;1.40;;;;;;;-1.57;60.89;91450.03;4980679;28;20049;-81
2024/01/16 05:52:44;;;;;;;2.28;1.40;;;;;;;-1.63;60.93;91462.00;5005036;28;20058;-80
2024/01/16 05:55:10;;;;;;;1.42;1.30;;;;;;;-1.72;60.76;91453.16;4987365;28;20026;-80
2024/01/16 05:57:37;;;;;;;1.63;1.20;;;;;;;-1.77;60.90;91465.94;4992163;28;20031;-77
2024/01/16 06:00:05;;;;;;;2.25;1.50;;;;;;;-1.82;62.01;91469.22;4968989;28;20041;-80
2024/01/16 06:02:34;;;;;;;2.90;1.77;;;;;;;-1.89;64.50;91474.50;4986650;28;20097;-80
2024/01/16 06:05:02;;;;;;;2.75;1.65;;;;;;;-1.94;65.60;91476.22;4979096;28;20054;-78
2024/01/16 06:07:28;;;;;;;2.92;1.60;;;;;;;-2.00;67.51;91483.06;4992629;28;20180;-79
2024/01/16 06:09:53;;;;;;;1.65;1.30;;;;;;;-2.03;66.97;91485.31;4991143;28;20038;-79
2024/01/16 06:12:20;;;;;;;1.95;1.38;;;;;;;-2.06;69.29;91488.34;4969144;28;20064;-79
2024/01/16 06:14:45;;;;;;;1.70;1.33;;;;;;;-2.11;70.82;91496.75;4982947;28;20037;-83
2024/01/16 06:17:11;;;;;;;4.07;1.70;;;;;;;-2.14;71.72;91492.06;4991922;28;20034;-81
2024/01/16 06:19:36;;;;;;;2.10;1.40;;;;;;;-2.19;70.93;91495.31;4995914;28;20115;-82
2024/01/16 06:22:02;;;;;;;2.30;1.50;;;;;;;-2.20;72.65;91508.41;4980587;28;20038;-81
2024/01/16 06:24:28;;;;;;;2.92;1.60;;;;;;;-2.23;72.42;91504.50;4978750;28;20093;-82
2024/01/16 06:26:55;;;;;;;3.42;1.50;;;;;;;-2.24;72.82;91509.88;4989229;28;20070;-82
2024/01/16 06:29:22;;;;;;;2.88;1.67;;;;;;;-2.28;73.08;91516.47;4993841;28;20064;-78
2024/01/16 06:31:49;;;;;;;4.07;2.03;;;;;;;-2.34;73.55;91529.19;4962273;28;20037;-80
2024/01/16 06:34:15;;;;;;;4.35;2.28;;;;;;;-2.35;76.21;91535.31;4988192;28;20030;-82
2024/01/16 06:36:40;;;;;;;4.72;2.70;;;;;;;-2.35;79.22;91532.75;4962260;28;20069;-81
2024/01/16 06:39:06;;;;;;;6.68;3.22;;;;;;;-2.35;81.66;91542.25;4991481;28;20033;-82
2024/01/16 06:41:34;;;;;;;5.53;3.38;;;;;;;-2.36;81.37;91544.03;4991952;28;20048;-81
2024/01/16 06:43:59;;;;;;;5.63;3.60;;;;;;;-2.34;82.72;91549.72;4988357;28;20034;-81
2024/01/16 06:46:25;;;;;;;6.47;3.97;;;;;;;-2.32;82.95;91541.75;4992827;28;20049;-81
2024/01/16 06:48:51;;;;;;;6.88;4.22;;;;;;;-2.29;87.30;91540.56;4961331;28;20038;-81
2024/01/16 06:51:17;;;;;;;6.55;4.03;;;;;;;-2.28;90.09;91553.13;4990213;28;20042;-82
2024/01/16 06:53:43;;;;;;;7.88;4.70;;;;;;;-2.32;93.10;91550.25;4976809;28;20090;-82
2024/01/16 06:56:09;;;;;;;7.82;4.13;;;;;;;-2.35;93.13;91558.38;4977661;28;20042;-83
2024/01/16 06:58:37;;;;;;;7.53;3.53;;;;;;;-2.30;89.59;91560.25;4978202;28;20034;-80
2024/01/16 07:01:04;;;;;;;8.90;4.38;;;;;;;-2.27;91.85;91564.16;4972643;28;20042;-83
2024/01/16 07:03:30;;;;;;;7.65;4.07;;;;;;;-2.21;92.89;91573.50;4973755;28;20042;-82
2024/01/16 07:05:56;;;;;;;6.13;3.40;;;;;;;-2.15;89.32;91572.56;4976222;28;20404;-82
2024/01/16 07:08:22;;;;;;;4.75;2.55;;;;;;;-2.15;86.68;91570.00;4994591;28;20105;-82
2024/01/16 07:10:47;;;;;;;4.22;2.50;;;;;;;-2.06;84.39;91578.09;4992371;28;20074;-82
2024/01/16 07:13:14;;;;;;;6.20;2.40;;;;;;;-2.06;84.78;91584.00;4993491;28;20401;-82
2024/01/16 07:15:39;;;;;;;3.50;2.05;;;;;;;-2.10;83.22;91582.91;4975530;28;20046;-82
2024/01/16 07:18:07;;;;;;;3.45;2.03;;;;;;;-2.00;81.51;91585.66;4975505;28;20150;-82
2024/01/16 07:20:34;;;;;;;3.58;2.13;;;;;;;-1.94;79.10;91594.97;4993043;28;20090;-80
2024/01/16 07:22:59;;;;;;;3.20;2.00;;;;;;;-1.84;78.96;91603.88;4974812;28;20030;-82
2024/01/16 07:25:25;;;;;;;4.07;2.20;;;;;;;-1.72;76.51;91597.63;4991819;28;20048;-82
2024/01/16 07:27:50;;;;;;;3.22;1.80;;;;;;;-1.63;75.92;91599.81;4992926;28;20041;-80
2024/01/16 07:30:16;;;;;;;2.92;1.63;;;;;;;-1.56;74.88;91615.84;4992155;28;20093;-81
2024/01/16 07:32:41;;;;;;;4.70;1.90;;;;;;;-1.55;75.11;91617.41;4973754;28;20035;-81
2024/01/16 07:35:07;;;;;;;3.30;1.75;;;;;;;-1.52;75.27;91622.06;4990196;28;20042;-81
2024/01/16 07:37:33;;;;;;;2.92;1.85;;;;;;;-1.52;74.15;91617.72;4975631;28;20019;-82
2024/01/16 07:39:58;;;;;;;2.95;1.63;;;;;;;-1.37;73.67;91629.25;4973904;28;20068;-82
2024/01/16 07:42:24;;;;;;;2.40;1.50;;;;;;;-0.72;72.18;91630.34;4991769;28;20065;-81
2024/01/16 07:44:50;;;;;;;2.20;1.50;;;;;;;-0.37;68.17;91624.88;4973464;28;20058;-83
2024/01/16 07:47:15;;;;;;;1.92;1.40;;;;;;;0.27;62.94;91633.75;4973219;28;20038;-83
2024/01/16 07:49:42;;;;;;;2.97;1.70;;;;;;;0.66;60.42;91642.06;4990044;28;20042;-82
2024/01/16 07:52:07;;;;;;;2.78;1.60;;;;;;;0.82;59.75;91642.97;4990576;28;20064;-82
2024/01/16 07:54:33;;;;;;;4.05;2.30;;;;;;;1.06;59.46;91647.75;4981733;28;20502;-82
2024/01/16 07:56:59;;;;;;;5.03;2.65;;;;;;;1.53;58.52;91662.44;4999998;28;20033;-82
2024/01/16 07:59:26;;;;;;;4.70;2.70;;;;;;;1.99;57.05;91650.53;4979815;28;20042;-80
2024/01/16 08:01:52;;;;;;;4.13;2.20;;;;;;;2.81;54.22;91662.78;4959869;28;20050;-85
2024/01/16 08:04:17;;;;;;;4.20;2.20;;;;;;;3.66;51.47;91667.34;4977315;28;20046;-84
2024/01/16 08:06:44;;;;;;;6.25;2.67;;;;;;;4.44;47.81;91669.34;4978333;28;20039;-83
2024/01/16 08:09:12;;;;;;;5.55;3.65;;;;;;;6.01;45.74;91663.13;4995668;28;20417;-83
2024/01/16 08:11:39;;;;;;;9.70;5.82;;;;;;;6.27;49.75;91680.22;4993649;28;20065;-83
2024/01/16 08:14:05;;;;;;;8.23;5.35;;;;;;;6.17;47.72;91689.69;4994722;28;20037;-83
2024/01/16 08:16:31;;;;;;;10.75;6.65;;;;;;;7.14;48.87;91684.22;4977341;28;20024;-81
2024/01/16 08:18:56;;;;;;;8.57;5.75;;;;;;;7.84;45.74;91693.78;4993476;28;20030;-84
2024/01/16 08:21:22;;;;;;;7.80;5.20;;;;;;;7.97;42.99;91698.22;4976357;28;20034;-83
2024/01/16 08:23:48;;;;;;;6.07;3.88;;;;;;;9.41;37.64;91690.03;4994767;28;20561;-81
2024/01/16 08:26:13;;;;;;;5.65;3.55;;;;;;;9.50;37.52;91696.88;4994109;28;20180;-84
2024/01/16 08:28:39;;;;;;;8.68;6.00;;;;;;;10.97;37.64;91692.47;4996375;28;20390;-83
2024/01/16 08:31:06;;;;;;;13.35;7.60;;;;;;;10.23;40.38;91698.44;4998655;28;20173;-83
2024/01/16 08:33:32;;;;;;;10.60;7.53;;;;;;;10.39;40.51;91713.44;5001971;28;20034;-83
2024/01/16 08:36:00;;;;;;;9.88;6.95;;;;;;;10.83;39.04;91710.97;5001336;28;20045;-82
2024/01/16 08:38:26;;;;;;;9.77;6.72;;;;;;;11.40;38.64;91718.69;4995940;28;20030;-82
2024/01/16 08:41:01;;;;;;;10.13;6.88;;;;;;;12.08;37.23;91720.75;5000969;28;20125;-80
2024/01/16 08:43:26;;;;;;;10.27;6.30;;;;;;;11.74;36.25;91714.47;4976904;28;20038;-84
2024/01/16 08:45:52;;;;;;;9.57;6.75;;;;;;;12.00;35.25;91718.91;4981785;28;20034;-81
2024/01/16 08:48:17;;;;;;;9.45;6.90;;;;;;;12.76;34.99;91733.91;5001382;28;20062;-83
2024/01/16 08:50:44;;;;;;;9.88;6.88;;;;;;;11.81;35.84;91727.88;4983009;28;20267;-81
2024/01/16 08:53:10;;;;;;;9.88;6.78;;;;;;;11.43;36.07;91727.75;5000043;28;20361;-82
2024/01/16 08:55:35;;;;;;;11.10;7.13;;;;;;;10.73;38.42;91732.19;4999522;28;20038;-82
2024/01/16 08:58:01;;;;;;;9.43;6.80;;;;;;;11.21;38.16;91736.53;5000111;28;20045;-82
2024/01/16 09:00:27;;;;;;;8.70;6.45;;;;;;;11.62;37.04;91737.94;4994788;28;20109;-83
2024/01/16 09:02:52;;;;;;;9.43;6.30;;;;;;;12.21;36.11;91740.00;5000152;28;20145;-84
2024/01/16 09:05:18;;;;;;;9.55;6.22;;;;;;;11.71;37.49;91738.72;4994134;28;20064;-84
2024/01/16 09:07:44;;;;;;;9.00;5.90;;;;;;;11.98;36.50;91739.44;4984903;28;20042;-83
2024/01/16 09:10:09;;;;;;;11.25;6.13;;;;;;;12.21;35.82;91743.41;4982935;28;20038;-79
2024/01/16 09:12:36;;;;;;;8.77;5.53;;;;;;;12.29;35.26;91747.88;5000713;28;20034;-86
2024/01/16 09:15:02;;;;;;;9.73;6.35;;;;;;;12.94;33.90;91745.09;4999800;28;20042;-87
2024/01/16 09:17:39;;;;;;;9.00;7.05;;;;;;;12.91;34.78;91753.59;4969101;28;20104;-85
2024/01/16 09:20:06;;;;;;;10.90;7.65;;;;;;;13.23;34.99;91756.66;4984635;28;20096;-83
2024/01/16 09:22:38;;;;;;;10.43;7.22;;;;;;;13.01;35.97;91745.34;5002215;28;20054;-86
2024/01/16 09:25:05;;;;;;;11.88;8.32;;;;;;;12.96;35.67;91755.28;4983127;28;20056;-86
2024/01/16 09:27:32;;;;;;;12.18;8.20;;;;;;;12.45;37.28;91757.81;4984255;28;20072;-84
2024/01/16 09:29:58;;;;;;;10.73;7.97;;;;;;;11.93;37.97;91763.22;4983482;28;20048;-84
2024/01/16 09:32:25;;;;;;;14.88;9.20;;;;;;;10.98;40.33;91767.34;4973096;28;20469;-83
2024/01/16 09:34:50;;;;;;;14.23;10.38;;;;;;;11.43;42.03;91765.22;4993720;28;20057;-84
2024/01/16 09:37:19;;;;;;;13.57;9.70;;;;;;;11.35;41.64;91766.00;4957441;28;20010;-84
2024/01/16 09:39:44;;;;;;;15.23;11.32;;;;;;;10.80;43.95;91767.28;4982963;28;20046;-84
2024/01/16 09:42:11;;;;;;;14.35;10.13;;;;;;;10.49;44.57;91771.81;4981668;28;20034;-85
2024/01/16 09:44:37;;;;;;;16.52;11.23;;;;;;;10.55;44.86;91775.84;4949770;28;20047;-84
2024/01/16 09:47:11;;;;;;;18.42;12.70;;;;;;;10.99;44.74;91766.28;4965451;28;20039;-83
2024/01/16 09:49:39;;;;;;;18.17;13.48;;;;;;;10.83;47.13;91773.78;4983665;28;20030;-84
2024/01/16 09:52:06;;;;;;;18.02;12.30;;;;;;;10.36;47.92;91781.31;4983297;28;20022;-84
2024/01/16 09:54:32;;;;;;;16.55;10.43;;;;;;;10.51;45.94;91783.50;4966004;28;20034;-85
2024/01/16 09:56:58;;;;;;;15.40;10.60;;;;;;;10.01;47.87;91770.63;4982907;28;20137;-85
2024/01/16 09:59:24;;;;;;;18.00;11.70;;;;;;;10.12;48.76;91787.63;4982617;28;20061;-84
2024/01/16 10:01:52;;;;;;;18.10;13.45;;;;;;;10.26;51.23;91784.16;4952304;28;20142;-84
2024/01/16 10:04:18;;;;;;;16.23;10.98;;;;;;;9.95;48.80;91792.75;4999422;28;20422;-85
2024/01/16 10:06:48;;;;;;;17.70;12.30;;;;;;;10.05;51.38;91789.13;4969735;28;20062;-85
2024/01/16 10:09:14;;;;;;;17.02;11.88;;;;;;;9.88;52.17;91776.72;4979594;28;20030;-84
2024/01/16 10:11:40;;;;;;;15.73;11.07;;;;;;;9.89;52.09;91778.28;4954880;28;20037;-85
2024/01/16 10:14:05;;;;;;;19.15;12.38;;;;;;;9.80;54.25;91786.81;4997847;28;20260;-84
2024/01/16 10:17:02;;;;;;;15.95;11.00;;;;;;;9.70;53.42;91787.03;4961606;28;20255;-84
2024/01/16 10:19:29;;;;;;;17.00;11.38;;;;;;;9.73;52.91;91789.09;4972402;28;20038;-83
2024/01/16 10:22:06;;;;;;;20.90;14.48;;;;;;;9.77;54.93;91784.81;4958441;28;20035;-83
2024/01/16 10:24:33;;;;;;;21.70;14.00;;;;;;;9.83;55.73;91782.06;4978362;28;20478;-83
2024/01/16 10:27:03;;;;;;;16.25;10.45;;;;;;;9.71;53.23;91777.38;4979588;28;20455;-83
2024/01/16 10:29:32;;;;;;;11.20;7.47;;;;;;;9.77;52.46;91784.03;4972326;28;20038;-85
2024/01/16 10:31:59;;;;;;;16.95;11.88;;;;;;;9.44;55.06;91783.50;4987164;28;20092;-82
2024/01/16 10:34:24;;;;;;;17.20;11.32;;;;;;;9.60;54.92;91769.00;4987089;28;20035;-83
2024/01/16 10:36:52;;;;;;;15.68;11.88;;;;;;;9.38;55.96;91782.81;4974743;28;20036;-81
2024/01/16 10:39:18;;;;;;;17.85;12.43;;;;;;;8.97;57.26;91791.53;4995356;28;20072;-83
2024/01/16 10:41:58;;;;;;;20.05;13.57;;;;;;;9.52;58.68;91790.59;4945726;28;20035;-83
2024/01/16 10:44:24;;;;;;;18.55;13.25;;;;;;;9.23;57.87;91799.63;4979873;28;20049;-83
2024/01/16 10:46:50;;;;;;;18.63;12.32;;;;;;;9.37;56.36;91794.34;4964380;28;20049;-82
2024/01/16 10:49:15;;;;;;;21.25;14.02;;;;;;;9.32;60.86;91787.41;4973940;28;20096;-83
2024/01/16 10:51:44;;;;;;;17.42;10.95;;;;;;;9.41;57.58;91784.84;4970775;28;20113;-78
2024/01/16 10:54:13;;;;;;;16.25;11.57;;;;;;;9.27;58.64;91787.50;4995083;28;20033;-82
2024/01/16 10:56:48;;;;;;;16.23;11.77;;;;;;;8.75;60.75;91784.41;4985718;28;20414;-82
2024/01/16 10:59:37;;;;;;;19.33;12.88;;;;;;;9.21;59.88;91782.66;4976255;28;20045;-81
2024/01/16 11:02:12;;;;;;;14.40;10.65;;;;;;;9.73;56.81;91783.09;4987606;28;20051;-81
2024/01/16 11:04:39;;;;;;;20.88;13.60;;;;;;;9.26;60.40;91782.59;4987910;28;20378;-81
2024/01/16 11:07:06;;;;;;;16.38;11.70;;;;;;;9.28;59.88;91783.81;4974337;28;20662;-81
2024/01/16 11:09:32;;;;;;;15.65;10.95;;;;;;;9.29;57.50;91785.34;4992149;28;20042;-81
2024/01/16 11:11:58;;;;;;;17.52;11.63;;;;;;;8.96;61.43;91790.75;4997142;28;20110;-80
2024/01/16 11:14:25;;;;;;;19.00;13.23;;;;;;;9.13;60.86;91799.81;5004310;28;20049;-81
2024/01/16 11:16:52;;;;;;;18.40;10.95;;;;;;;8.75;62.38;91800.81;4991019;28;20031;-80
2024/01/16 11:19:19;;;;;;;13.48;9.90;;;;;;;8.18;64.47;91786.47;4990661;28;20042;-80
2024/01/16 11:21:45;;;;;;;19.58;13.35;;;;;;;8.07;67.45;91791.84;5005444;28;20153;-81
2024/01/16 11:24:12;;;;;;;19.98;13.63;;;;;;;8.03;69.21;91793.50;4998370;28;20049;-80
2024/01/16 11:26:40;;;;;;;16.88;11.52;;;;;;;7.88;69.18;91789.31;5005755;28;20030;-79
2024/01/16 11:29:27;;;;;;;17.55;12.65;;;;;;;8.23;69.12;91794.22;4991732;28;20054;-80
2024/01/16 11:31:54;;;;;;;10.13;7.05;;;;;;;7.72;69.38;91783.59;4977914;28;20034;-80